createdAt,value
2019-05-03T00:00:37.646Z,70.31
2019-05-03T00:01:37.763Z,70.61
2019-05-03T00:02:37.605Z,70.72
2019-05-03T00:03:37.607Z,71.02
2019-05-03T00:04:37.571Z,71.84
2019-05-03T00:05:37.558Z,71.22
2019-05-03T00:06:37.590Z,71.53
2019-05-03T00:07:37.564Z,71.33
2019-05-03T00:08:37.534Z,71.22
2019-05-03T00:09:37.515Z,71.12
2019-05-03T00:10:37.532Z,70.95
2019-05-03T00:11:37.539Z,71.56
2019-05-03T00:12:37.498Z,72.17
2019-05-03T00:13:37.480Z,72.28
2019-05-03T00:14:37.473Z,72.17
2019-05-03T00:15:37.456Z,72.17
2019-05-03T00:16:37.485Z,72.38
2019-05-03T00:17:37.472Z,72.41
2019-05-03T00:18:37.439Z,71.87
2019-05-03T00:19:37.419Z,72.79
2019-05-03T00:20:37.412Z,72.99
2019-05-03T00:21:37.382Z,72.58
2019-05-03T00:22:37.401Z,72.38
2019-05-03T00:23:37.406Z,72.99
2019-05-03T00:24:37.351Z,72.48
2019-05-03T00:25:37.352Z,72.58
2019-05-03T00:26:37.329Z,72.28
2019-05-03T00:27:37.325Z,72.17
2019-05-03T00:28:37.344Z,72.48
2019-05-03T00:29:37.338Z,72.69
2019-05-03T00:30:37.291Z,72.89
2019-05-03T00:31:37.286Z,72.69
2019-05-03T00:32:37.261Z,72.82
2019-05-03T00:33:37.255Z,73.50
2019-05-03T00:34:37.276Z,72.52
2019-05-03T00:35:37.258Z,72.21
2019-05-03T00:36:37.228Z,73.03
2019-05-03T00:37:37.223Z,72.92
2019-05-03T00:38:37.193Z,72.82
2019-05-03T00:39:37.186Z,72.89
2019-05-03T00:40:37.226Z,72.58
2019-05-03T00:41:37.178Z,72.21
2019-05-03T00:42:37.170Z,73.03
2019-05-03T00:43:37.142Z,72.92
2019-05-03T00:44:37.141Z,72.92
2019-05-03T00:45:37.126Z,72.72
2019-05-03T00:46:37.141Z,72.21
2019-05-03T00:47:37.108Z,72.72
2019-05-03T00:48:37.094Z,72.21
2019-05-03T00:49:37.075Z,72.92
2019-05-03T00:50:37.088Z,72.24
2019-05-03T00:51:37.110Z,71.50
2019-05-03T00:52:37.049Z,71.12
2019-05-03T00:53:37.035Z,71.22
2019-05-03T00:54:37.033Z,71.53
2019-05-03T00:55:37.011Z,70.92
2019-05-03T00:56:36.999Z,71.25
2019-05-03T00:57:37.053Z,71.77
2019-05-03T00:58:36.987Z,71.66
2019-05-03T00:59:36.974Z,71.77
2019-05-03T01:00:36.972Z,72.07
2019-05-03T01:01:36.949Z,72.07
2019-05-03T01:02:36.983Z,72.38
2019-05-03T01:03:36.932Z,73.10
2019-05-03T01:04:36.914Z,72.58
2019-05-03T01:05:36.934Z,72.89
2019-05-03T01:06:36.923Z,72.69
2019-05-03T01:07:36.926Z,72.48
2019-05-03T01:08:36.891Z,73.71
2019-05-03T01:09:36.869Z,72.89
2019-05-03T01:10:36.853Z,72.96
2019-05-03T01:11:36.843Z,72.28
2019-05-03T01:12:36.831Z,71.87
2019-05-03T01:13:36.852Z,72.79
2019-05-03T01:14:36.802Z,72.89
2019-05-03T01:15:36.807Z,73.61
2019-05-03T01:16:36.798Z,74.02
2019-05-03T01:17:36.784Z,73.20
2019-05-03T01:18:36.803Z,75.21
2019-05-03T01:19:36.772Z,76.43
2019-05-03T01:20:36.742Z,76.95
2019-05-03T01:21:36.740Z,77.46
2019-05-03T01:22:36.723Z,77.67
2019-05-03T01:23:36.715Z,77.67
2019-05-03T01:24:36.734Z,77.87
2019-05-03T01:25:36.683Z,78.28
2019-05-03T01:26:36.679Z,78.79
2019-05-03T01:27:36.657Z,79.00
2019-05-03T01:28:36.660Z,79.54
2019-05-03T01:29:36.670Z,79.34
2019-05-03T01:30:36.635Z,80.36
2019-05-03T01:31:36.626Z,80.67
2019-05-03T01:32:36.614Z,80.46
2019-05-03T01:33:36.602Z,80.98
2019-05-03T01:34:36.597Z,82.10
2019-05-03T01:35:36.603Z,82.65
2019-05-03T01:36:36.561Z,82.04
2019-05-03T01:37:36.552Z,81.79
2019-05-03T01:38:36.562Z,82.10
2019-05-03T01:39:36.533Z,82.35
2019-05-03T01:40:36.572Z,82.35
2019-05-03T01:41:36.503Z,82.35
2019-05-03T01:42:36.493Z,82.96
2019-05-03T01:43:36.486Z,82.45
2019-05-03T01:44:36.507Z,83.37
2019-05-03T01:45:36.495Z,83.84
2019-05-03T01:46:36.474Z,83.06
2019-05-03T01:47:36.449Z,83.78
2019-05-03T01:48:36.431Z,83.27
2019-05-03T01:49:36.424Z,83.58
2019-05-03T01:50:36.407Z,83.06
2019-05-03T01:51:36.444Z,83.88
2019-05-03T01:52:36.382Z,83.27
2019-05-03T01:53:36.454Z,83.31
2019-05-03T01:54:36.372Z,83.78
2019-05-03T01:55:44.514Z,84.12
2019-05-03T01:56:36.377Z,83.98
2019-05-03T01:57:36.379Z,83.88
2019-05-03T01:58:36.336Z,83.47
2019-05-03T01:59:36.309Z,83.58
2019-05-03T02:00:36.302Z,83.88
2019-05-03T02:01:36.301Z,83.54
2019-05-03T02:02:36.318Z,83.03
2019-05-03T02:03:36.276Z,82.31
2019-05-03T02:04:36.255Z,82.92
2019-05-03T02:05:36.240Z,83.78
2019-05-03T02:06:36.291Z,83.95
2019-05-03T02:07:36.257Z,84.05
2019-05-03T02:08:36.214Z,84.05
2019-05-03T02:09:36.207Z,83.54
2019-05-03T02:10:36.215Z,83.84
2019-05-03T02:11:36.174Z,84.05
2019-05-03T02:12:36.227Z,83.44
2019-05-03T02:13:36.188Z,82.41
2019-05-03T02:14:36.199Z,82.24
2019-05-03T02:15:36.148Z,82.24
2019-05-03T02:16:36.125Z,82.96
2019-05-03T02:17:36.113Z,83.68
2019-05-03T02:18:36.111Z,83.06
2019-05-03T02:19:36.127Z,82.65
2019-05-03T02:20:36.090Z,83.78
2019-05-03T02:21:36.085Z,84.19
2019-05-03T02:22:36.054Z,83.95
2019-05-03T02:23:36.061Z,83.64
2019-05-03T02:24:36.078Z,83.88
2019-05-03T02:25:36.059Z,83.98
2019-05-03T02:26:36.022Z,82.65
2019-05-03T02:27:36.019Z,81.32
2019-05-03T02:28:35.991Z,80.71
2019-05-03T02:29:35.986Z,79.11
2019-05-03T02:30:36.005Z,78.49
2019-05-03T02:31:35.980Z,79.41
2019-05-03T02:32:35.959Z,79.41
2019-05-03T02:33:35.938Z,79.52
2019-05-03T02:34:35.940Z,78.74
2019-05-03T02:35:35.954Z,77.50
2019-05-03T02:36:35.938Z,78.74
2019-05-03T02:37:35.904Z,79.69
2019-05-03T02:38:35.902Z,79.55
2019-05-03T02:39:36.073Z,79.75
2019-05-03T02:40:35.865Z,78.22
2019-05-03T02:41:39.102Z,77.54
2019-05-03T02:42:35.841Z,77.95
2019-05-03T02:43:36.554Z,77.84
2019-05-03T02:44:35.834Z,79.28
2019-05-03T02:45:35.805Z,78.25
2019-05-03T02:46:36.303Z,79.69
2019-05-03T02:47:35.858Z,78.56
2019-05-03T02:48:36.527Z,78.87
2019-05-03T02:49:35.771Z,78.25
2019-05-03T02:50:36.192Z,78.36
2019-05-03T02:51:36.103Z,78.36
2019-05-03T02:52:37.200Z,78.97
2019-05-03T02:53:36.135Z,77.84
2019-05-03T02:54:35.713Z,77.23
2019-05-03T02:55:36.429Z,78.67
2019-05-03T02:56:36.037Z,78.97
2019-05-03T02:57:35.724Z,77.84
2019-05-03T02:58:35.892Z,77.64
2019-05-03T02:59:35.675Z,76.82
2019-05-03T03:00:36.152Z,76.72
2019-05-03T03:01:35.922Z,76.92
2019-05-03T03:02:36.519Z,75.49
2019-05-03T03:03:36.518Z,75.18
2019-05-03T03:04:35.612Z,75.59
2019-05-03T03:05:35.589Z,74.60
2019-05-03T03:06:36.645Z,75.73
2019-05-03T03:07:37.717Z,73.78
2019-05-03T03:08:36.878Z,73.98
2019-05-03T03:09:36.123Z,74.60
2019-05-03T03:10:35.663Z,75.52
2019-05-03T03:11:35.657Z,75.52
2019-05-03T03:12:35.766Z,74.66
2019-05-03T03:13:36.923Z,74.60
2019-05-03T03:14:36.219Z,74.19
2019-05-03T03:15:36.285Z,75.01
2019-05-03T03:16:36.317Z,74.77
2019-05-03T03:17:36.432Z,73.88
2019-05-03T03:18:36.445Z,73.88
2019-05-03T03:19:35.447Z,73.57
2019-05-03T03:20:35.733Z,73.88
2019-05-03T03:21:36.028Z,73.16
2019-05-03T03:22:36.260Z,73.47
2019-05-03T03:23:35.647Z,74.22
2019-05-03T03:24:36.103Z,73.61
2019-05-03T03:25:36.136Z,74.43
2019-05-03T03:26:41.560Z,74.74
2019-05-03T03:27:36.138Z,75.04
2019-05-03T03:28:35.975Z,75.25
2019-05-03T03:29:35.903Z,75.66
2019-05-03T03:30:38.042Z,75.45
2019-05-03T03:31:37.815Z,75.76
2019-05-03T03:32:38.407Z,75.62
2019-05-03T03:33:39.729Z,75.76
2019-05-03T03:34:38.749Z,75.42
2019-05-03T03:35:38.121Z,74.91
2019-05-03T03:36:49.790Z,75.66
2019-05-03T03:37:35.501Z,74.60
2019-05-03T03:38:35.564Z,74.63
2019-05-03T03:39:36.073Z,75.66
2019-05-03T03:40:35.879Z,75.15
2019-05-03T03:41:35.415Z,75.70
2019-05-03T03:42:36.008Z,76.28
2019-05-03T03:43:35.548Z,76.07
2019-05-03T03:44:36.255Z,75.87
2019-05-03T03:45:35.933Z,75.87
2019-05-03T03:46:35.849Z,74.36
2019-05-03T03:47:35.751Z,74.53
2019-05-03T03:48:35.520Z,75.59
2019-05-03T03:49:35.673Z,76.31
2019-05-03T03:50:35.858Z,76.31
2019-05-03T03:51:35.226Z,76.42
2019-05-03T03:52:36.058Z,76.42
2019-05-03T03:53:35.725Z,76.21
2019-05-03T03:54:35.656Z,76.93
2019-05-03T03:55:35.430Z,77.34
2019-05-03T03:56:40.883Z,75.70
2019-05-03T03:57:36.040Z,75.70
2019-05-03T03:58:35.932Z,75.90
2019-05-03T03:59:36.397Z,75.59
2019-05-03T04:00:36.179Z,75.90
2019-05-03T04:01:35.114Z,75.90
2019-05-03T04:02:35.508Z,75.70
2019-05-03T04:03:36.247Z,75.70
2019-05-03T04:04:35.880Z,75.70
2019-05-03T04:05:35.870Z,75.49
2019-05-03T04:06:35.792Z,75.66
2019-05-03T04:07:36.106Z,75.76
2019-05-03T04:08:36.017Z,75.56
2019-05-03T04:09:36.408Z,75.80
2019-05-03T04:10:35.363Z,75.90
2019-05-03T04:11:35.102Z,76.00
2019-05-03T04:12:35.271Z,76.72
2019-05-03T04:13:36.087Z,76.31
2019-05-03T04:14:36.149Z,76.72
2019-05-03T04:15:37.090Z,75.80
2019-05-03T04:16:36.430Z,76.17
2019-05-03T04:17:36.112Z,76.72
2019-05-03T04:18:36.126Z,76.10
2019-05-03T04:19:36.439Z,76.72
2019-05-03T04:20:36.016Z,76.82
2019-05-03T04:21:35.860Z,76.42
2019-05-03T04:22:36.270Z,76.42
2019-05-03T04:23:35.902Z,75.80
2019-05-03T04:24:35.225Z,75.70
2019-05-03T04:25:35.631Z,75.93
2019-05-03T04:26:35.767Z,75.87
2019-05-03T04:27:36.464Z,74.74
2019-05-03T04:28:36.134Z,74.02
2019-05-03T04:29:35.689Z,72.58
2019-05-03T04:30:36.347Z,72.72
2019-05-03T04:31:36.812Z,73.30
2019-05-03T04:32:35.989Z,72.78
2019-05-03T04:33:35.891Z,69.39
2019-05-03T04:34:35.830Z,67.16
2019-05-03T04:35:36.267Z,64.79
2019-05-03T04:36:35.800Z,65.13
2019-05-03T04:37:35.886Z,65.55
2019-05-03T04:38:35.472Z,65.55
2019-05-03T04:39:35.931Z,65.34
2019-05-03T04:40:35.766Z,65.34
2019-05-03T04:41:35.702Z,65.52
2019-05-03T04:42:35.700Z,66.96
2019-05-03T04:43:35.667Z,66.27
2019-05-03T04:44:35.808Z,66.03
2019-05-03T04:45:36.770Z,65.83
2019-05-03T04:46:35.860Z,65.11
2019-05-03T04:47:35.766Z,65.11
2019-05-03T04:48:35.800Z,65.20
2019-05-03T04:49:36.224Z,65.83
2019-05-03T04:50:36.668Z,65.31
2019-05-03T04:51:35.040Z,65.52
2019-05-03T04:52:36.143Z,64.90
2019-05-03T04:53:35.761Z,65.31
2019-05-03T04:54:35.622Z,65.62
2019-05-03T04:55:36.317Z,64.79
2019-05-03T04:56:35.979Z,64.41
2019-05-03T04:57:40.440Z,64.79
2019-05-03T04:58:36.403Z,64.69
2019-05-03T04:59:35.865Z,65.23
2019-05-03T05:00:35.856Z,65.20
2019-05-03T05:01:35.266Z,66.96
2019-05-03T05:02:35.424Z,65.65
2019-05-03T05:03:36.238Z,65.03
2019-05-03T05:04:35.781Z,66.03
2019-05-03T05:05:36.380Z,65.41
2019-05-03T05:06:35.042Z,65.52
2019-05-03T05:07:35.067Z,65.20
2019-05-03T05:08:35.862Z,65.92
2019-05-03T05:09:34.918Z,65.72
2019-05-03T05:10:36.296Z,65.72
2019-05-03T05:11:35.100Z,66.24
2019-05-03T05:12:35.540Z,66.96
2019-05-03T05:13:35.645Z,66.44
2019-05-03T05:14:35.243Z,66.96
2019-05-03T05:15:35.393Z,67.47
2019-05-03T05:16:35.643Z,66.96
2019-05-03T05:17:35.486Z,67.78
2019-05-03T05:18:35.300Z,67.68
2019-05-03T05:19:35.702Z,66.93
2019-05-03T05:20:35.093Z,67.54
2019-05-03T05:21:35.527Z,67.54
2019-05-03T05:22:34.961Z,67.95
2019-05-03T05:23:35.348Z,69.09
2019-05-03T05:24:34.643Z,68.70
2019-05-03T05:25:35.469Z,68.91
2019-05-03T05:26:35.309Z,68.67
2019-05-03T05:27:34.627Z,68.57
2019-05-03T05:28:35.512Z,68.46
2019-05-03T05:29:34.619Z,68.46
2019-05-03T05:30:35.343Z,67.65
2019-05-03T05:31:35.638Z,67.23
2019-05-03T05:32:35.024Z,68.02
2019-05-03T05:33:35.347Z,67.51
2019-05-03T05:34:34.984Z,67.95
2019-05-03T05:35:35.252Z,67.95
2019-05-03T05:36:34.738Z,68.26
2019-05-03T05:37:35.239Z,68.77
2019-05-03T05:38:34.656Z,67.75
2019-05-03T05:39:35.622Z,68.77
2019-05-03T05:40:34.957Z,68.77
2019-05-03T05:41:34.766Z,68.77
2019-05-03T05:42:35.079Z,69.84
2019-05-03T05:43:35.562Z,69.22
2019-05-03T05:44:35.240Z,69.09
2019-05-03T05:45:34.826Z,69.09
2019-05-03T05:46:35.174Z,69.39
2019-05-03T05:47:34.536Z,69.29
2019-05-03T05:48:34.915Z,69.18
2019-05-03T05:49:35.090Z,69.56
2019-05-03T05:50:34.597Z,69.60
2019-05-03T05:51:35.328Z,69.15
2019-05-03T05:52:34.621Z,69.70
2019-05-03T05:53:35.745Z,69.26
2019-05-03T05:54:35.072Z,69.29
2019-05-03T05:55:34.464Z,69.94
2019-05-03T05:56:35.335Z,69.53
2019-05-03T05:57:34.632Z,69.63
2019-05-03T05:58:34.799Z,70.35
2019-05-03T05:59:35.026Z,70.86
2019-05-03T06:00:35.787Z,70.45
2019-05-03T06:01:35.315Z,70.62
2019-05-03T06:02:35.898Z,69.49
2019-05-03T06:03:34.414Z,70.32
2019-05-03T06:04:34.899Z,70.14
2019-05-03T06:05:35.428Z,70.42
2019-05-03T06:06:34.816Z,70.14
2019-05-03T06:07:35.125Z,69.90
2019-05-03T06:08:35.346Z,70.32
2019-05-03T06:09:34.414Z,71.14
2019-05-03T06:10:34.805Z,70.52
2019-05-03T06:11:34.742Z,69.49
2019-05-03T06:12:35.268Z,69.80
2019-05-03T06:13:34.445Z,70.01
2019-05-03T06:14:34.653Z,69.60
2019-05-03T06:15:34.494Z,68.26
2019-05-03T06:16:34.855Z,68.37
2019-05-03T06:17:34.831Z,68.33
2019-05-03T06:18:35.261Z,69.09
2019-05-03T06:19:34.545Z,69.46
2019-05-03T06:20:34.922Z,68.64
2019-05-03T06:21:35.201Z,67.20
2019-05-03T06:22:34.566Z,67.00
2019-05-03T06:23:34.759Z,68.74
2019-05-03T06:24:34.917Z,68.43
2019-05-03T06:25:35.286Z,67.51
2019-05-03T06:26:34.681Z,67.10
2019-05-03T06:27:34.712Z,66.89
2019-05-03T06:28:35.125Z,67.20
2019-05-03T06:29:35.092Z,67.33
2019-05-03T06:30:35.068Z,67.92
2019-05-03T06:31:34.406Z,67.00
2019-05-03T06:32:34.577Z,67.30
2019-05-03T06:33:34.722Z,67.20
2019-05-03T06:34:35.340Z,66.48
2019-05-03T06:35:34.577Z,66.76
2019-05-03T06:36:35.335Z,66.04
2019-05-03T06:37:35.312Z,65.22
2019-05-03T06:38:34.409Z,65.73
2019-05-03T06:39:35.064Z,65.22
2019-05-03T06:40:35.265Z,66.04
2019-05-03T06:41:35.209Z,66.63
2019-05-03T06:42:33.209Z,66.96
2019-05-03T06:43:34.862Z,66.11
2019-05-03T06:44:34.941Z,65.83
2019-05-03T06:45:35.232Z,66.86
2019-05-03T06:46:35.544Z,67.68
2019-05-03T06:47:34.855Z,66.04
2019-05-03T06:48:34.800Z,66.66
2019-05-03T06:49:34.585Z,66.25
2019-05-03T06:50:34.794Z,66.25
2019-05-03T06:51:34.969Z,67.27
2019-05-03T06:52:35.083Z,65.70
2019-05-03T06:53:34.541Z,65.53
2019-05-03T06:54:34.642Z,65.94
2019-05-03T06:55:35.093Z,66.01
2019-05-03T06:56:34.955Z,65.73
2019-05-03T06:57:33.078Z,65.42
2019-05-03T06:58:34.271Z,64.60
2019-05-03T06:59:33.018Z,66.48
2019-05-03T07:00:34.933Z,65.69
2019-05-03T07:01:34.483Z,66.00
2019-05-03T07:02:32.996Z,65.89
2019-05-03T07:03:33.021Z,66.58
2019-05-03T07:04:34.590Z,66.72
2019-05-03T07:05:32.957Z,66.89
2019-05-03T07:06:39.597Z,67.41
2019-05-03T07:07:32.958Z,66.86
2019-05-03T07:08:34.472Z,66.69
2019-05-03T07:09:32.948Z,66.86
2019-05-03T07:10:32.892Z,66.04
2019-05-03T07:11:34.728Z,66.86
2019-05-03T07:12:32.933Z,67.17
2019-05-03T07:13:34.583Z,66.73
2019-05-03T07:14:34.799Z,67.55
2019-05-03T07:15:34.970Z,67.03
2019-05-03T07:16:32.830Z,65.60
2019-05-03T07:17:34.915Z,65.01
2019-05-03T07:18:35.003Z,66.04
2019-05-03T07:19:32.833Z,67.17
2019-05-03T07:20:32.793Z,66.93
2019-05-03T07:21:32.771Z,67.03
2019-05-03T07:22:32.766Z,64.98
2019-05-03T07:23:34.746Z,64.37
2019-05-03T07:24:35.473Z,64.98
2019-05-03T07:25:34.480Z,63.82
2019-05-03T07:26:34.406Z,63.21
2019-05-03T07:27:34.865Z,62.83
2019-05-03T07:28:44.510Z,63.03
2019-05-03T07:29:33.713Z,63.34
2019-05-03T07:30:35.153Z,63.34
2019-05-03T07:31:32.664Z,63.00
2019-05-03T07:32:34.697Z,62.80
2019-05-03T07:33:34.525Z,62.80
2019-05-03T07:34:32.634Z,62.46
2019-05-03T07:35:32.627Z,61.33
2019-05-03T07:36:32.631Z,60.51
2019-05-03T07:37:34.755Z,61.85
2019-05-03T07:38:32.586Z,60.51
2019-05-03T07:39:34.695Z,61.02
2019-05-03T07:40:32.562Z,61.00
2019-05-03T07:41:32.570Z,61.10
2019-05-03T07:42:34.593Z,61.00
2019-05-03T07:43:32.582Z,60.49
2019-05-03T07:44:34.564Z,60.25
2019-05-03T07:45:32.518Z,60.05
2019-05-03T07:46:32.500Z,59.64
2019-05-03T07:47:32.500Z,60.86
2019-05-03T07:48:32.524Z,60.38
2019-05-03T07:49:32.469Z,60.69
2019-05-03T07:50:33.262Z,60.69
2019-05-03T07:51:32.441Z,59.77
2019-05-03T07:52:32.439Z,60.28
2019-05-03T07:53:34.726Z,59.69
2019-05-03T07:54:34.699Z,60.07
2019-05-03T07:55:32.402Z,59.69
2019-05-03T07:56:32.393Z,59.69
2019-05-03T07:57:32.377Z,60.07
2019-05-03T07:58:32.386Z,58.05
2019-05-03T07:59:32.389Z,58.97
2019-05-03T08:00:34.274Z,60.21
2019-05-03T08:01:32.330Z,58.36
2019-05-03T08:02:32.334Z,58.87
2019-05-03T08:03:32.356Z,58.07
2019-05-03T08:04:32.346Z,58.39
2019-05-03T08:05:32.291Z,59.31
2019-05-03T08:06:34.460Z,59.72
2019-05-03T08:07:32.274Z,59.62
2019-05-03T08:08:32.309Z,59.31
2019-05-03T08:09:32.248Z,59.41
2019-05-03T08:10:34.396Z,60.31
2019-05-03T08:11:32.230Z,59.59
2019-05-03T08:12:32.212Z,59.28
2019-05-03T08:13:32.204Z,59.18
2019-05-03T08:14:32.190Z,58.05
2019-05-03T08:15:32.228Z,57.43
2019-05-03T08:16:32.180Z,57.33
2019-05-03T08:17:32.159Z,55.79
2019-05-03T08:18:32.144Z,55.49
2019-05-03T08:19:32.135Z,56.49
2019-05-03T08:20:32.122Z,57.20
2019-05-03T08:21:32.162Z,56.79
2019-05-03T08:22:32.101Z,55.49
2019-05-03T08:23:32.096Z,55.38
2019-05-03T08:24:32.086Z,55.87
2019-05-03T08:25:32.075Z,55.46
2019-05-03T08:26:32.057Z,54.74
2019-05-03T08:27:32.115Z,54.53
2019-05-03T08:28:32.043Z,54.85
2019-05-03T08:29:32.038Z,54.33
2019-05-03T08:30:32.014Z,54.64
2019-05-03T08:31:32.002Z,53.03
2019-05-03T08:32:32.098Z,53.54
2019-05-03T08:33:31.992Z,54.33
2019-05-03T08:34:31.967Z,54.64
2019-05-03T08:35:31.986Z,54.74
2019-05-03T08:36:31.951Z,53.10
2019-05-03T08:37:31.935Z,53.59
2019-05-03T08:38:31.937Z,53.80
2019-05-03T08:39:31.912Z,53.72
2019-05-03T08:40:31.951Z,53.18
2019-05-03T08:41:31.890Z,52.15
2019-05-03T08:42:31.888Z,51.75
2019-05-03T08:43:31.868Z,53.67
2019-05-03T08:44:31.941Z,51.54
2019-05-03T08:45:31.890Z,51.03
2019-05-03T08:46:31.849Z,51.23
2019-05-03T08:47:31.824Z,52.26
2019-05-03T08:48:31.825Z,51.95
2019-05-03T08:49:31.807Z,51.03
2019-05-03T08:50:31.841Z,51.26
2019-05-03T08:51:31.786Z,51.05
2019-05-03T08:52:31.787Z,52.49
2019-05-03T08:53:31.765Z,51.13
2019-05-03T08:54:31.750Z,51.95
2019-05-03T08:55:31.788Z,53.18
2019-05-03T08:56:31.741Z,52.34
2019-05-03T08:57:31.722Z,52.44
2019-05-03T08:58:31.706Z,51.72
2019-05-03T08:59:32.719Z,51.08
2019-05-03T09:00:31.685Z,51.39
2019-05-03T09:01:31.714Z,51.10
2019-05-03T09:02:31.677Z,51.39
2019-05-03T09:03:31.685Z,50.67
2019-05-03T09:05:18.071Z,48.85
2019-05-03T09:05:31.651Z,48.93
2019-05-03T09:06:31.707Z,49.67
2019-05-03T09:07:31.611Z,48.42
2019-05-03T09:08:31.628Z,48.63
2019-05-03T09:09:31.598Z,48.83
2019-05-03T09:10:31.634Z,49.75
2019-05-03T09:11:34.347Z,49.65
2019-05-03T09:12:31.553Z,49.52
2019-05-03T09:13:31.546Z,50.88
2019-05-03T09:14:41.438Z,50.57
2019-05-03T09:15:35.097Z,48.91
2019-05-03T09:16:31.528Z,48.81
2019-05-03T09:17:31.519Z,48.52
2019-05-03T09:18:31.494Z,50.26
2019-05-03T09:19:31.485Z,49.96
2019-05-03T09:20:32.427Z,49.44
2019-05-03T09:21:31.562Z,49.55
2019-05-03T09:22:31.462Z,49.34
2019-05-03T09:23:31.439Z,48.52
2019-05-03T09:24:31.472Z,47.91
2019-05-03T09:25:31.423Z,48.11
2019-05-03T09:26:31.448Z,49.44
2019-05-03T09:27:31.386Z,49.96
2019-05-03T09:28:31.390Z,51.08
2019-05-03T09:29:41.076Z,50.47
2019-05-03T09:30:31.373Z,49.04
2019-05-03T09:31:31.347Z,49.96
2019-05-03T09:32:31.372Z,49.85
2019-05-03T09:33:31.333Z,50.88
2019-05-03T09:34:31.327Z,50.45
2019-05-03T09:35:33.771Z,50.04
2019-05-03T09:36:31.297Z,50.22
2019-05-03T09:37:31.317Z,49.81
2019-05-03T09:38:31.265Z,49.81
2019-05-03T09:39:31.265Z,48.27
2019-05-03T09:40:31.269Z,48.17
2019-05-03T09:41:31.241Z,48.07
2019-05-03T09:42:31.238Z,46.12
2019-05-03T09:43:31.257Z,48.17
2019-05-03T09:44:31.203Z,46.94
2019-05-03T09:45:31.197Z,46.44
2019-05-03T09:46:31.226Z,46.72
2019-05-03T09:47:31.181Z,45.88
2019-05-03T09:48:31.180Z,46.08
2019-05-03T09:49:31.161Z,45.96
2019-05-03T09:50:31.134Z,45.53
2019-05-03T09:51:31.165Z,46.04
2019-05-03T09:52:31.179Z,44.08
2019-05-03T09:53:31.113Z,44.31
2019-05-03T09:54:31.119Z,44.12
2019-05-03T09:55:31.084Z,44.22
2019-05-03T09:56:31.128Z,43.84
2019-05-03T09:57:31.099Z,42.71
2019-05-03T09:58:31.058Z,42.71
2019-05-03T09:59:31.046Z,42.43
2019-05-03T10:00:31.049Z,42.75
2019-05-03T10:01:31.018Z,44.08
2019-05-03T10:02:31.014Z,42.75
2019-05-03T10:03:31.083Z,44.18
2019-05-03T10:04:30.987Z,43.98
2019-05-03T10:05:30.988Z,45.20
2019-05-03T10:06:31.046Z,42.96
2019-05-03T10:07:30.953Z,44.29
2019-05-03T10:08:30.944Z,44.18
2019-05-03T10:09:30.950Z,45.31
2019-05-03T10:10:30.929Z,46.31
2019-05-03T10:11:30.922Z,47.33
2019-05-03T10:12:30.941Z,46.19
2019-05-03T10:13:30.887Z,47.11
2019-05-03T10:14:30.881Z,45.65
2019-05-03T10:15:30.864Z,45.22
2019-05-03T10:16:30.866Z,44.38
2019-05-03T10:17:30.906Z,41.51
2019-05-03T10:18:30.830Z,41.92
2019-05-03T10:19:37.627Z,41.41
2019-05-03T10:20:30.825Z,40.28
2019-05-03T10:21:30.808Z,41.51
2019-05-03T10:22:30.824Z,41.63
2019-05-03T10:23:30.811Z,42.06
2019-05-03T10:24:30.766Z,41.35
2019-05-03T10:25:30.779Z,41.55
2019-05-03T10:26:30.756Z,41.77
2019-05-03T10:27:30.739Z,41.77
2019-05-03T10:28:30.772Z,41.67
2019-05-03T10:29:30.741Z,42.61
2019-05-03T10:30:30.707Z,42.41
2019-05-03T10:31:30.687Z,43.91
2019-05-03T10:32:30.695Z,43.51
2019-05-03T10:33:30.703Z,42.77
2019-05-03T10:34:30.700Z,43.29
2019-05-03T10:35:30.644Z,43.59
2019-05-03T10:36:30.640Z,42.85
2019-05-03T10:37:30.625Z,43.06
2019-05-03T10:38:30.618Z,42.65
2019-05-03T10:39:30.643Z,41.75
2019-05-03T10:40:30.618Z,43.18
2019-05-03T10:41:30.579Z,44.32
2019-05-03T10:42:30.569Z,44.31
2019-05-03T10:43:30.574Z,44.00
2019-05-03T10:44:30.555Z,42.45
2019-05-03T10:45:30.583Z,43.67
2019-05-03T10:46:30.550Z,41.96
2019-05-03T10:47:30.560Z,42.47
2019-05-03T10:48:30.503Z,42.45
2019-05-03T10:49:30.516Z,42.57
2019-05-03T10:50:30.491Z,41.24
2019-05-03T10:51:30.498Z,41.77
2019-05-03T10:52:30.491Z,43.29
2019-05-03T10:53:30.463Z,42.47
2019-05-03T10:54:30.438Z,42.76
2019-05-03T10:55:30.432Z,43.90
2019-05-03T10:56:30.464Z,42.35
2019-05-03T10:57:30.459Z,43.06
2019-05-03T10:58:30.426Z,42.63
2019-05-03T10:59:30.389Z,40.80
2019-05-03T11:00:52.605Z,41.92
2019-05-03T11:01:31.371Z,42.02
2019-05-03T11:02:30.356Z,42.63
2019-05-03T11:03:30.382Z,42.21
2019-05-03T11:04:30.330Z,42.00
2019-05-03T11:05:30.324Z,41.80
2019-05-03T11:06:30.317Z,40.47
2019-05-03T11:07:30.337Z,41.89
2019-05-03T11:08:30.335Z,41.89
2019-05-03T11:09:30.303Z,41.49
2019-05-03T11:10:30.260Z,40.26
2019-05-03T11:11:30.255Z,40.88
2019-05-03T11:12:30.239Z,41.80
2019-05-03T11:13:30.282Z,40.37
2019-05-03T11:14:30.257Z,40.39
2019-05-03T11:15:30.246Z,42.33
2019-05-03T11:16:30.199Z,41.82
2019-05-03T11:17:30.214Z,41.82
2019-05-03T11:18:30.192Z,40.61
2019-05-03T11:19:30.211Z,40.53
2019-05-03T11:20:32.094Z,41.97
2019-05-03T11:21:31.103Z,42.67
2019-05-03T11:22:30.133Z,40.85
2019-05-03T11:23:30.135Z,41.97
2019-05-03T11:24:30.112Z,42.36
2019-05-03T11:25:30.158Z,43.08
2019-05-03T11:26:30.090Z,42.06
2019-05-03T11:27:30.080Z,41.82
2019-05-03T11:28:30.066Z,42.45
2019-05-03T11:29:30.066Z,42.53
2019-05-03T11:30:30.083Z,40.80
2019-05-03T11:31:30.046Z,41.82
2019-05-03T11:32:30.045Z,41.82
2019-05-03T11:33:30.019Z,41.61
2019-05-03T11:34:30.001Z,40.90
2019-05-03T11:35:30.077Z,41.59
2019-05-03T11:36:31.784Z,42.10
2019-05-03T11:37:29.984Z,40.14
2019-05-03T11:38:30.001Z,41.86
2019-05-03T11:39:29.950Z,42.27
2019-05-03T11:40:29.938Z,41.14
2019-05-03T11:41:32.751Z,41.53
2019-05-03T11:42:29.923Z,40.31
2019-05-03T11:43:29.917Z,41.43
2019-05-03T11:44:29.938Z,39.48
2019-05-03T11:45:29.883Z,39.78
2019-05-03T11:46:29.906Z,38.46
2019-05-03T11:47:29.897Z,38.87
2019-05-03T11:48:29.873Z,38.99
2019-05-03T11:49:29.869Z,38.28
2019-05-03T11:50:29.821Z,38.60
2019-05-03T11:51:29.822Z,39.74
2019-05-03T11:52:29.816Z,39.92
2019-05-03T11:53:29.794Z,41.86
2019-05-03T11:54:29.838Z,41.66
2019-05-03T11:55:29.768Z,39.51
2019-05-03T11:56:29.758Z,40.84
2019-05-03T11:57:29.746Z,40.43
2019-05-03T11:58:29.754Z,41.53
2019-05-03T11:59:29.765Z,39.48
2019-05-03T12:00:29.740Z,39.48
2019-05-03T12:01:29.708Z,39.78
2019-05-03T12:02:29.698Z,41.92
2019-05-03T12:03:29.988Z,39.38
2019-05-03T12:04:29.669Z,38.87
2019-05-03T12:05:29.704Z,38.56
2019-05-03T12:06:29.689Z,38.67
2019-05-03T12:07:38.833Z,38.87
2019-05-03T12:08:30.649Z,39.28
2019-05-03T12:09:29.625Z,40.19
2019-05-03T12:10:46.008Z,40.50
2019-05-03T12:11:30.634Z,40.80
2019-05-03T12:12:29.633Z,41.11
2019-05-03T12:13:29.572Z,39.78
2019-05-03T12:14:29.558Z,40.78
2019-05-03T12:15:29.573Z,40.19
2019-05-03T12:17:08.832Z,40.52
2019-05-03T12:17:30.966Z,39.50
2019-05-03T12:18:29.607Z,40.52
2019-05-03T12:19:31.542Z,40.53
2019-05-03T12:20:31.029Z,40.33
2019-05-03T12:21:30.702Z,40.53
2019-05-03T12:22:30.026Z,39.21
2019-05-03T12:23:31.510Z,40.94
2019-05-03T12:24:30.132Z,41.86
2019-05-03T12:25:30.014Z,39.92
2019-05-03T12:26:40.800Z,40.43
2019-05-03T12:27:29.421Z,40.03
2019-05-03T12:28:29.461Z,40.74
2019-05-03T12:29:29.423Z,40.23
2019-05-03T12:30:29.384Z,41.75
2019-05-03T12:31:37.088Z,42.47
2019-05-03T12:32:30.375Z,42.06
2019-05-03T12:33:29.407Z,40.33
2019-05-03T12:34:29.353Z,40.33
2019-05-03T12:35:29.361Z,40.64
2019-05-03T12:36:29.364Z,40.43
2019-05-03T12:37:29.310Z,39.09
2019-05-03T12:38:29.327Z,39.60
2019-05-03T12:39:30.495Z,39.29
2019-05-03T12:40:29.287Z,40.23
2019-05-03T12:41:29.266Z,40.64
2019-05-03T12:42:29.274Z,40.62
2019-05-03T12:43:29.254Z,39.70
2019-05-03T12:44:29.266Z,40.74
2019-05-03T12:45:29.245Z,40.45
2019-05-03T12:46:29.234Z,40.05
2019-05-03T12:47:29.205Z,40.64
2019-05-03T12:48:29.194Z,40.12
2019-05-03T12:49:29.195Z,39.92
2019-05-03T12:50:29.202Z,40.03
2019-05-03T12:51:29.194Z,40.23
2019-05-03T12:52:29.732Z,39.53